sensor_id;sensor_type;location;lat;lon;timestamp;P1;durP1;ratioP1;P2;durP2;ratioP2
7813;SDS011;3952;48.364;16.022;2023-02-17T00:01:26;29.67;;;18.03;;
7813;SDS011;3952;48.364;16.022;2023-02-17T00:03:56;29.67;;;18.93;;
7813;SDS011;3952;48.364;16.022;2023-02-17T00:06:25;31.20;;;18.67;;
7813;SDS011;3952;48.364;16.022;2023-02-17T00:08:53;28.13;;;17.83;;
7813;SDS011;3952;48.364;16.022;2023-02-17T00:11:21;29.93;;;17.90;;
7813;SDS011;3952;48.364;16.022;2023-02-17T00:13:49;29.90;;;17.50;;
7813;SDS011;3952;48.364;16.022;2023-02-17T00:16:17;30.43;;;18.37;;
7813;SDS011;3952;48.364;16.022;2023-02-17T00:18:45;30.67;;;18.00;;
7813;SDS011;3952;48.364;16.022;2023-02-17T00:21:19;28.60;;;18.20;;
7813;SDS011;3952;48.364;16.022;2023-02-17T00:23:47;29.73;;;18.17;;
7813;SDS011;3952;48.364;16.022;2023-02-17T00:26:17;32.37;;;19.07;;
7813;SDS011;3952;48.364;16.022;2023-02-17T00:28:46;28.13;;;17.43;;
7813;SDS011;3952;48.364;16.022;2023-02-17T00:31:15;26.53;;;17.03;;
7813;SDS011;3952;48.364;16.022;2023-02-17T00:33:43;27.23;;;17.73;;
7813;SDS011;3952;48.364;16.022;2023-02-17T00:36:14;26.73;;;17.53;;
7813;SDS011;3952;48.364;16.022;2023-02-17T00:38:44;29.37;;;17.70;;
7813;SDS011;3952;48.364;16.022;2023-02-17T00:41:13;30.93;;;18.23;;
7813;SDS011;3952;48.364;16.022;2023-02-17T00:43:40;26.30;;;17.10;;
7813;SDS011;3952;48.364;16.022;2023-02-17T00:46:07;27.23;;;17.40;;
7813;SDS011;3952;48.364;16.022;2023-02-17T00:48:34;24.77;;;16.40;;
7813;SDS011;3952;48.364;16.022;2023-02-17T00:51:01;23.83;;;16.53;;
7813;SDS011;3952;48.364;16.022;2023-02-17T00:53:29;24.73;;;16.43;;
7813;SDS011;3952;48.364;16.022;2023-02-17T00:55:57;24.77;;;15.90;;
7813;SDS011;3952;48.364;16.022;2023-02-17T00:58:25;26.17;;;16.60;;
7813;SDS011;3952;48.364;16.022;2023-02-17T01:00:53;24.33;;;16.77;;
7813;SDS011;3952;48.364;16.022;2023-02-17T01:03:21;28.10;;;16.97;;
7813;SDS011;3952;48.364;16.022;2023-02-17T01:05:49;25.87;;;16.27;;
7813;SDS011;3952;48.364;16.022;2023-02-17T01:08:17;25.13;;;15.90;;
7813;SDS011;3952;48.364;16.022;2023-02-17T01:10:45;25.63;;;15.70;;
7813;SDS011;3952;48.364;16.022;2023-02-17T01:13:15;24.97;;;16.70;;
7813;SDS011;3952;48.364;16.022;2023-02-17T01:15:44;28.13;;;17.30;;
7813;SDS011;3952;48.364;16.022;2023-02-17T01:18:12;23.93;;;16.33;;
7813;SDS011;3952;48.364;16.022;2023-02-17T01:20:40;26.00;;;16.17;;
7813;SDS011;3952;48.364;16.022;2023-02-17T01:23:08;33.17;;;18.97;;
7813;SDS011;3952;48.364;16.022;2023-02-17T01:25:36;31.10;;;17.70;;
7813;SDS011;3952;48.364;16.022;2023-02-17T01:28:04;30.63;;;17.70;;
7813;SDS011;3952;48.364;16.022;2023-02-17T01:30:33;31.70;;;18.63;;
7813;SDS011;3952;48.364;16.022;2023-02-17T01:33:00;25.87;;;17.30;;
7813;SDS011;3952;48.364;16.022;2023-02-17T01:35:27;29.97;;;18.27;;
7813;SDS011;3952;48.364;16.022;2023-02-17T01:37:54;31.73;;;17.97;;
7813;SDS011;3952;48.364;16.022;2023-02-17T01:40:22;26.73;;;17.77;;
7813;SDS011;3952;48.364;16.022;2023-02-17T01:42:49;26.97;;;17.00;;
7813;SDS011;3952;48.364;16.022;2023-02-17T01:45:38;26.60;;;16.33;;
7813;SDS011;3952;48.364;16.022;2023-02-17T01:48:11;31.23;;;18.33;;
7813;SDS011;3952;48.364;16.022;2023-02-17T01:50:42;26.37;;;16.83;;
7813;SDS011;3952;48.364;16.022;2023-02-17T01:53:13;29.97;;;18.43;;
7813;SDS011;3952;48.364;16.022;2023-02-17T01:55:44;32.13;;;18.17;;
7813;SDS011;3952;48.364;16.022;2023-02-17T01:58:13;31.90;;;18.47;;
7813;SDS011;3952;48.364;16.022;2023-02-17T02:00:46;30.70;;;18.70;;
7813;SDS011;3952;48.364;16.022;2023-02-17T02:03:15;23.70;;;16.57;;
7813;SDS011;3952;48.364;16.022;2023-02-17T02:05:43;28.80;;;18.23;;
7813;SDS011;3952;48.364;16.022;2023-02-17T02:08:10;32.00;;;18.40;;
7813;SDS011;3952;48.364;16.022;2023-02-17T02:10:39;42.40;;;22.67;;
7813;SDS011;3952;48.364;16.022;2023-02-17T02:13:09;41.90;;;22.30;;
7813;SDS011;3952;48.364;16.022;2023-02-17T02:15:41;33.23;;;20.07;;
7813;SDS011;3952;48.364;16.022;2023-02-17T02:18:24;35.97;;;20.73;;
7813;SDS011;3952;48.364;16.022;2023-02-17T02:24:06;34.10;;;20.80;;
7813;SDS011;3952;48.364;16.022;2023-02-17T02:30:17;34.60;;;19.53;;
7813;SDS011;3952;48.364;16.022;2023-02-17T02:33:07;36.40;;;21.20;;
7813;SDS011;3952;48.364;16.022;2023-02-17T02:35:46;37.57;;;21.33;;
7813;SDS011;3952;48.364;16.022;2023-02-17T02:38:18;39.27;;;21.57;;
7813;SDS011;3952;48.364;16.022;2023-02-17T02:40:51;28.37;;;19.20;;
7813;SDS011;3952;48.364;16.022;2023-02-17T02:43:23;31.77;;;18.70;;
7813;SDS011;3952;48.364;16.022;2023-02-17T02:45:51;30.73;;;19.30;;
7813;SDS011;3952;48.364;16.022;2023-02-17T02:48:19;32.50;;;19.73;;
7813;SDS011;3952;48.364;16.022;2023-02-17T02:50:54;35.03;;;20.57;;
7813;SDS011;3952;48.364;16.022;2023-02-17T02:56:46;38.60;;;21.10;;
7813;SDS011;3952;48.364;16.022;2023-02-17T02:59:26;32.57;;;20.63;;
7813;SDS011;3952;48.364;16.022;2023-02-17T03:02:04;32.73;;;19.67;;
7813;SDS011;3952;48.364;16.022;2023-02-17T03:04:39;35.50;;;20.60;;
7813;SDS011;3952;48.364;16.022;2023-02-17T03:07:12;34.40;;;20.40;;
7813;SDS011;3952;48.364;16.022;2023-02-17T03:09:45;35.57;;;20.90;;
7813;SDS011;3952;48.364;16.022;2023-02-17T03:12:13;34.20;;;20.53;;
7813;SDS011;3952;48.364;16.022;2023-02-17T03:14:40;32.73;;;20.73;;
7813;SDS011;3952;48.364;16.022;2023-02-17T03:17:08;32.10;;;19.23;;
7813;SDS011;3952;48.364;16.022;2023-02-17T03:19:37;28.23;;;19.30;;
7813;SDS011;3952;48.364;16.022;2023-02-17T03:22:06;33.20;;;20.80;;
7813;SDS011;3952;48.364;16.022;2023-02-17T03:24:39;31.50;;;19.57;;
7813;SDS011;3952;48.364;16.022;2023-02-17T03:27:08;31.80;;;20.13;;
7813;SDS011;3952;48.364;16.022;2023-02-17T03:29:35;34.33;;;19.53;;
7813;SDS011;3952;48.364;16.022;2023-02-17T03:32:03;31.60;;;19.67;;
7813;SDS011;3952;48.364;16.022;2023-02-17T03:34:30;33.90;;;20.00;;
7813;SDS011;3952;48.364;16.022;2023-02-17T03:36:59;26.17;;;18.97;;
7813;SDS011;3952;48.364;16.022;2023-02-17T03:39:26;29.60;;;19.73;;
7813;SDS011;3952;48.364;16.022;2023-02-17T03:41:53;29.47;;;18.97;;
7813;SDS011;3952;48.364;16.022;2023-02-17T03:44:21;29.37;;;18.67;;
7813;SDS011;3952;48.364;16.022;2023-02-17T03:46:48;31.30;;;19.27;;
7813;SDS011;3952;48.364;16.022;2023-02-17T03:49:15;31.63;;;19.53;;
7813;SDS011;3952;48.364;16.022;2023-02-17T03:51:42;31.63;;;19.67;;
7813;SDS011;3952;48.364;16.022;2023-02-17T03:54:11;27.17;;;18.23;;
7813;SDS011;3952;48.364;16.022;2023-02-17T03:56:38;34.70;;;19.40;;
7813;SDS011;3952;48.364;16.022;2023-02-17T03:59:05;30.67;;;19.50;;
7813;SDS011;3952;48.364;16.022;2023-02-17T04:01:32;29.13;;;18.93;;
7813;SDS011;3952;48.364;16.022;2023-02-17T04:03:59;34.07;;;20.50;;
7813;SDS011;3952;48.364;16.022;2023-02-17T04:06:26;32.60;;;20.73;;
7813;SDS011;3952;48.364;16.022;2023-02-17T04:08:54;33.00;;;21.20;;
7813;SDS011;3952;48.364;16.022;2023-02-17T04:11:22;30.10;;;20.07;;
7813;SDS011;3952;48.364;16.022;2023-02-17T04:13:49;31.53;;;19.97;;
7813;SDS011;3952;48.364;16.022;2023-02-17T04:16:17;32.67;;;20.13;;
7813;SDS011;3952;48.364;16.022;2023-02-17T04:18:44;32.33;;;19.60;;
7813;SDS011;3952;48.364;16.022;2023-02-17T04:21:11;32.20;;;20.77;;
7813;SDS011;3952;48.364;16.022;2023-02-17T04:23:38;30.03;;;19.20;;
7813;SDS011;3952;48.364;16.022;2023-02-17T04:26:06;30.73;;;19.13;;
7813;SDS011;3952;48.364;16.022;2023-02-17T04:28:36;29.30;;;18.40;;
7813;SDS011;3952;48.364;16.022;2023-02-17T04:31:04;33.80;;;21.00;;
7813;SDS011;3952;48.364;16.022;2023-02-17T04:33:31;26.73;;;19.13;;
7813;SDS011;3952;48.364;16.022;2023-02-17T04:35:59;32.30;;;19.17;;
7813;SDS011;3952;48.364;16.022;2023-02-17T04:38:26;32.40;;;19.17;;
7813;SDS011;3952;48.364;16.022;2023-02-17T04:40:54;31.43;;;19.63;;
7813;SDS011;3952;48.364;16.022;2023-02-17T04:43:23;29.33;;;17.97;;
7813;SDS011;3952;48.364;16.022;2023-02-17T04:45:52;27.67;;;18.40;;
7813;SDS011;3952;48.364;16.022;2023-02-17T04:48:20;30.87;;;18.20;;
7813;SDS011;3952;48.364;16.022;2023-02-17T04:50:48;26.70;;;17.57;;
7813;SDS011;3952;48.364;16.022;2023-02-17T04:53:15;29.53;;;18.07;;
7813;SDS011;3952;48.364;16.022;2023-02-17T04:55:43;27.43;;;18.03;;
7813;SDS011;3952;48.364;16.022;2023-02-17T04:58:10;32.40;;;19.43;;
7813;SDS011;3952;48.364;16.022;2023-02-17T05:00:37;27.33;;;18.00;;
7813;SDS011;3952;48.364;16.022;2023-02-17T05:03:05;25.27;;;17.60;;
7813;SDS011;3952;48.364;16.022;2023-02-17T05:05:33;28.00;;;18.20;;
7813;SDS011;3952;48.364;16.022;2023-02-17T05:08:00;26.57;;;18.53;;
7813;SDS011;3952;48.364;16.022;2023-02-17T05:10:27;29.77;;;17.23;;
7813;SDS011;3952;48.364;16.022;2023-02-17T05:12:54;27.07;;;17.33;;
7813;SDS011;3952;48.364;16.022;2023-02-17T05:15:21;27.77;;;16.70;;
7813;SDS011;3952;48.364;16.022;2023-02-17T05:17:48;23.07;;;15.93;;
7813;SDS011;3952;48.364;16.022;2023-02-17T05:20:17;22.47;;;15.07;;
7813;SDS011;3952;48.364;16.022;2023-02-17T05:22:44;22.90;;;15.30;;
7813;SDS011;3952;48.364;16.022;2023-02-17T05:25:12;20.90;;;14.67;;
7813;SDS011;3952;48.364;16.022;2023-02-17T05:27:39;24.17;;;16.03;;
7813;SDS011;3952;48.364;16.022;2023-02-17T05:30:06;22.97;;;15.37;;
7813;SDS011;3952;48.364;16.022;2023-02-17T05:32:34;18.63;;;15.07;;
7813;SDS011;3952;48.364;16.022;2023-02-17T05:35:01;19.80;;;14.63;;
7813;SDS011;3952;48.364;16.022;2023-02-17T05:37:30;19.57;;;14.83;;
7813;SDS011;3952;48.364;16.022;2023-02-17T05:39:57;22.03;;;15.30;;
7813;SDS011;3952;48.364;16.022;2023-02-17T05:42:24;17.30;;;14.00;;
7813;SDS011;3952;48.364;16.022;2023-02-17T05:44:53;18.73;;;14.17;;
7813;SDS011;3952;48.364;16.022;2023-02-17T05:47:20;22.27;;;15.40;;
7813;SDS011;3952;48.364;16.022;2023-02-17T05:49:47;18.97;;;14.70;;
7813;SDS011;3952;48.364;16.022;2023-02-17T05:52:14;21.50;;;15.47;;
7813;SDS011;3952;48.364;16.022;2023-02-17T05:54:43;17.93;;;14.93;;
7813;SDS011;3952;48.364;16.022;2023-02-17T05:57:11;18.80;;;14.43;;
7813;SDS011;3952;48.364;16.022;2023-02-17T05:59:38;21.60;;;14.83;;
7813;SDS011;3952;48.364;16.022;2023-02-17T06:02:05;18.37;;;15.50;;
7813;SDS011;3952;48.364;16.022;2023-02-17T06:04:34;18.73;;;14.60;;
7813;SDS011;3952;48.364;16.022;2023-02-17T06:07:02;20.83;;;13.97;;
7813;SDS011;3952;48.364;16.022;2023-02-17T06:09:29;16.73;;;13.47;;
7813;SDS011;3952;48.364;16.022;2023-02-17T06:11:58;17.47;;;13.23;;
7813;SDS011;3952;48.364;16.022;2023-02-17T06:14:25;20.17;;;14.57;;
7813;SDS011;3952;48.364;16.022;2023-02-17T06:16:52;23.23;;;14.93;;
7813;SDS011;3952;48.364;16.022;2023-02-17T06:19:21;21.13;;;15.63;;
7813;SDS011;3952;48.364;16.022;2023-02-17T06:21:48;18.57;;;13.83;;
7813;SDS011;3952;48.364;16.022;2023-02-17T06:24:15;17.43;;;13.43;;
7813;SDS011;3952;48.364;16.022;2023-02-17T06:26:43;16.97;;;12.30;;
7813;SDS011;3952;48.364;16.022;2023-02-17T06:29:13;15.53;;;11.93;;
7813;SDS011;3952;48.364;16.022;2023-02-17T06:31:40;17.93;;;12.93;;
7813;SDS011;3952;48.364;16.022;2023-02-17T06:34:07;17.23;;;13.43;;
7813;SDS011;3952;48.364;16.022;2023-02-17T06:36:34;24.07;;;15.70;;
7813;SDS011;3952;48.364;16.022;2023-02-17T06:39:02;22.67;;;15.63;;
7813;SDS011;3952;48.364;16.022;2023-02-17T06:41:29;20.20;;;15.43;;
7813;SDS011;3952;48.364;16.022;2023-02-17T06:43:56;21.67;;;15.50;;
7813;SDS011;3952;48.364;16.022;2023-02-17T06:46:25;20.57;;;14.27;;
7813;SDS011;3952;48.364;16.022;2023-02-17T06:48:52;19.90;;;15.17;;
7813;SDS011;3952;48.364;16.022;2023-02-17T06:51:19;19.87;;;14.37;;
7813;SDS011;3952;48.364;16.022;2023-02-17T06:53:46;17.77;;;13.90;;
7813;SDS011;3952;48.364;16.022;2023-02-17T06:56:13;14.63;;;12.30;;
7813;SDS011;3952;48.364;16.022;2023-02-17T06:58:40;17.03;;;12.73;;
7813;SDS011;3952;48.364;16.022;2023-02-17T07:01:13;17.43;;;12.33;;
7813;SDS011;3952;48.364;16.022;2023-02-17T07:03:43;16.33;;;11.50;;
7813;SDS011;3952;48.364;16.022;2023-02-17T07:06:11;16.03;;;12.60;;
7813;SDS011;3952;48.364;16.022;2023-02-17T07:08:38;13.80;;;12.27;;
7813;SDS011;3952;48.364;16.022;2023-02-17T07:11:05;14.10;;;12.20;;
7813;SDS011;3952;48.364;16.022;2023-02-17T07:13:33;17.97;;;12.97;;
7813;SDS011;3952;48.364;16.022;2023-02-17T07:16:00;14.63;;;11.73;;
7813;SDS011;3952;48.364;16.022;2023-02-17T07:18:28;14.43;;;11.53;;
7813;SDS011;3952;48.364;16.022;2023-02-17T07:20:57;16.23;;;11.70;;
7813;SDS011;3952;48.364;16.022;2023-02-17T07:23:24;14.33;;;11.70;;
7813;SDS011;3952;48.364;16.022;2023-02-17T07:25:51;12.17;;;10.80;;
7813;SDS011;3952;48.364;16.022;2023-02-17T07:28:18;16.70;;;11.40;;
7813;SDS011;3952;48.364;16.022;2023-02-17T07:30:46;14.10;;;12.37;;
7813;SDS011;3952;48.364;16.022;2023-02-17T07:33:13;12.23;;;10.90;;
7813;SDS011;3952;48.364;16.022;2023-02-17T07:35:41;16.47;;;11.83;;
7813;SDS011;3952;48.364;16.022;2023-02-17T07:38:10;12.53;;;11.17;;
7813;SDS011;3952;48.364;16.022;2023-02-17T07:40:38;15.97;;;11.47;;
7813;SDS011;3952;48.364;16.022;2023-02-17T07:43:06;18.47;;;11.67;;
7813;SDS011;3952;48.364;16.022;2023-02-17T07:45:33;14.40;;;11.87;;
7813;SDS011;3952;48.364;16.022;2023-02-17T07:48:00;12.47;;;11.20;;
7813;SDS011;3952;48.364;16.022;2023-02-17T07:50:27;15.80;;;11.77;;
7813;SDS011;3952;48.364;16.022;2023-02-17T07:52:55;13.07;;;11.20;;
7813;SDS011;3952;48.364;16.022;2023-02-17T07:55:23;15.23;;;11.23;;
7813;SDS011;3952;48.364;16.022;2023-02-17T07:57:50;14.30;;;11.67;;
7813;SDS011;3952;48.364;16.022;2023-02-17T08:00:18;12.30;;;11.07;;
7813;SDS011;3952;48.364;16.022;2023-02-17T08:02:45;12.67;;;11.30;;
7813;SDS011;3952;48.364;16.022;2023-02-17T08:05:13;13.43;;;10.57;;
7813;SDS011;3952;48.364;16.022;2023-02-17T08:07:40;13.20;;;10.93;;
7813;SDS011;3952;48.364;16.022;2023-02-17T08:10:09;14.27;;;11.03;;
7813;SDS011;3952;48.364;16.022;2023-02-17T08:12:56;11.93;;;10.73;;
7813;SDS011;3952;48.364;16.022;2023-02-17T08:15:41;11.73;;;10.63;;
7813;SDS011;3952;48.364;16.022;2023-02-17T08:18:08;21.40;;;11.00;;
7813;SDS011;3952;48.364;16.022;2023-02-17T08:20:35;11.07;;;9.97;;
7813;SDS011;3952;48.364;16.022;2023-02-17T08:23:03;12.20;;;9.60;;
7813;SDS011;3952;48.364;16.022;2023-02-17T08:25:30;12.93;;;9.70;;
7813;SDS011;3952;48.364;16.022;2023-02-17T08:28:00;11.50;;;10.00;;
7813;SDS011;3952;48.364;16.022;2023-02-17T08:30:28;10.47;;;9.40;;
7813;SDS011;3952;48.364;16.022;2023-02-17T08:32:55;10.50;;;9.40;;
7813;SDS011;3952;48.364;16.022;2023-02-17T08:35:23;10.63;;;9.47;;
7813;SDS011;3952;48.364;16.022;2023-02-17T08:37:53;10.47;;;9.43;;
7813;SDS011;3952;48.364;16.022;2023-02-17T08:40:20;10.60;;;9.30;;
7813;SDS011;3952;48.364;16.022;2023-02-17T08:42:47;9.93;;;8.63;;
7813;SDS011;3952;48.364;16.022;2023-02-17T08:45:16;11.50;;;8.70;;
7813;SDS011;3952;48.364;16.022;2023-02-17T08:47:43;9.63;;;8.63;;
7813;SDS011;3952;48.364;16.022;2023-02-17T08:50:10;11.93;;;8.97;;
7813;SDS011;3952;48.364;16.022;2023-02-17T08:52:41;12.03;;;9.20;;
7813;SDS011;3952;48.364;16.022;2023-02-17T08:55:08;9.40;;;8.50;;
7813;SDS011;3952;48.364;16.022;2023-02-17T08:57:35;8.13;;;7.20;;
7813;SDS011;3952;48.364;16.022;2023-02-17T09:00:03;9.63;;;8.60;;
7813;SDS011;3952;48.364;16.022;2023-02-17T09:02:33;9.13;;;8.33;;
7813;SDS011;3952;48.364;16.022;2023-02-17T09:05:01;9.17;;;8.33;;
7813;SDS011;3952;48.364;16.022;2023-02-17T09:07:29;13.80;;;8.20;;
7813;SDS011;3952;48.364;16.022;2023-02-17T09:09:56;8.47;;;7.40;;
7813;SDS011;3952;48.364;16.022;2023-02-17T09:12:23;10.17;;;7.53;;
7813;SDS011;3952;48.364;16.022;2023-02-17T09:14:50;8.80;;;7.60;;
7813;SDS011;3952;48.364;16.022;2023-02-17T09:17:18;8.57;;;7.80;;
7813;SDS011;3952;48.364;16.022;2023-02-17T09:19:46;8.53;;;7.50;;
7813;SDS011;3952;48.364;16.022;2023-02-17T09:22:13;9.17;;;7.73;;
7813;SDS011;3952;48.364;16.022;2023-02-17T09:24:41;10.10;;;7.57;;
7813;SDS011;3952;48.364;16.022;2023-02-17T09:27:08;9.20;;;8.30;;
7813;SDS011;3952;48.364;16.022;2023-02-17T09:29:36;8.57;;;7.77;;
7813;SDS011;3952;48.364;16.022;2023-02-17T09:32:05;9.10;;;8.30;;
7813;SDS011;3952;48.364;16.022;2023-02-17T09:34:34;12.00;;;8.77;;
7813;SDS011;3952;48.364;16.022;2023-02-17T09:37:03;10.43;;;8.43;;
7813;SDS011;3952;48.364;16.022;2023-02-17T09:39:35;9.53;;;8.53;;
7813;SDS011;3952;48.364;16.022;2023-02-17T09:42:02;7.87;;;7.20;;
7813;SDS011;3952;48.364;16.022;2023-02-17T09:44:31;8.73;;;7.90;;
7813;SDS011;3952;48.364;16.022;2023-02-17T09:47:06;8.57;;;7.73;;
7813;SDS011;3952;48.364;16.022;2023-02-17T09:49:38;11.00;;;8.80;;
7813;SDS011;3952;48.364;16.022;2023-02-17T09:52:12;12.50;;;8.43;;
7813;SDS011;3952;48.364;16.022;2023-02-17T09:54:46;10.33;;;8.47;;
7813;SDS011;3952;48.364;16.022;2023-02-17T09:57:22;8.47;;;7.13;;
7813;SDS011;3952;48.364;16.022;2023-02-17T09:59:53;9.47;;;7.17;;
7813;SDS011;3952;48.364;16.022;2023-02-17T10:02:24;8.07;;;7.37;;
7813;SDS011;3952;48.364;16.022;2023-02-17T10:04:59;10.13;;;7.97;;
7813;SDS011;3952;48.364;16.022;2023-02-17T10:07:32;8.77;;;7.90;;
7813;SDS011;3952;48.364;16.022;2023-02-17T10:10:06;7.73;;;7.03;;
7813;SDS011;3952;48.364;16.022;2023-02-17T10:12:37;8.27;;;7.53;;
7813;SDS011;3952;48.364;16.022;2023-02-17T10:15:09;10.27;;;6.80;;
7813;SDS011;3952;48.364;16.022;2023-02-17T10:17:43;7.97;;;7.27;;
7813;SDS011;3952;48.364;16.022;2023-02-17T10:20:14;7.00;;;6.03;;
7813;SDS011;3952;48.364;16.022;2023-02-17T10:22:46;6.33;;;5.83;;
7813;SDS011;3952;48.364;16.022;2023-02-17T10:25:19;8.07;;;6.40;;
7813;SDS011;3952;48.364;16.022;2023-02-17T10:27:55;6.83;;;5.27;;
7813;SDS011;3952;48.364;16.022;2023-02-17T10:30:32;6.50;;;5.90;;
7813;SDS011;3952;48.364;16.022;2023-02-17T10:33:10;6.00;;;5.50;;
7813;SDS011;3952;48.364;16.022;2023-02-17T10:35:46;12.40;;;5.83;;
7813;SDS011;3952;48.364;16.022;2023-02-17T10:38:18;6.70;;;5.50;;
7813;SDS011;3952;48.364;16.022;2023-02-17T10:41:03;5.57;;;5.03;;
7813;SDS011;3952;48.364;16.022;2023-02-17T10:43:34;5.50;;;4.60;;
7813;SDS011;3952;48.364;16.022;2023-02-17T10:46:02;6.20;;;4.40;;
7813;SDS011;3952;48.364;16.022;2023-02-17T10:48:33;7.33;;;4.63;;
7813;SDS011;3952;48.364;16.022;2023-02-17T10:51:03;7.97;;;4.90;;
7813;SDS011;3952;48.364;16.022;2023-02-17T10:53:33;4.97;;;4.57;;
7813;SDS011;3952;48.364;16.022;2023-02-17T10:56:03;6.23;;;5.63;;
7813;SDS011;3952;48.364;16.022;2023-02-17T10:58:36;6.07;;;4.57;;
7813;SDS011;3952;48.364;16.022;2023-02-17T11:01:15;9.97;;;5.47;;
7813;SDS011;3952;48.364;16.022;2023-02-17T11:03:43;5.47;;;4.93;;
7813;SDS011;3952;48.364;16.022;2023-02-17T11:06:15;8.13;;;5.13;;
7813;SDS011;3952;48.364;16.022;2023-02-17T11:08:45;7.00;;;5.17;;
7813;SDS011;3952;48.364;16.022;2023-02-17T11:11:16;8.07;;;4.83;;
7813;SDS011;3952;48.364;16.022;2023-02-17T11:13:55;5.50;;;5.07;;
7813;SDS011;3952;48.364;16.022;2023-02-17T11:16:32;6.90;;;4.97;;
7813;SDS011;3952;48.364;16.022;2023-02-17T11:19:02;6.20;;;5.30;;
7813;SDS011;3952;48.364;16.022;2023-02-17T11:21:30;7.70;;;5.53;;
7813;SDS011;3952;48.364;16.022;2023-02-17T11:24:01;5.97;;;5.07;;
7813;SDS011;3952;48.364;16.022;2023-02-17T11:26:30;5.50;;;5.00;;
7813;SDS011;3952;48.364;16.022;2023-02-17T11:29:08;4.80;;;4.40;;
7813;SDS011;3952;48.364;16.022;2023-02-17T11:31:36;5.00;;;3.63;;
7813;SDS011;3952;48.364;16.022;2023-02-17T11:34:10;4.00;;;3.60;;
7813;SDS011;3952;48.364;16.022;2023-02-17T11:36:38;5.37;;;3.70;;
7813;SDS011;3952;48.364;16.022;2023-02-17T11:39:17;3.43;;;3.20;;
7813;SDS011;3952;48.364;16.022;2023-02-17T11:41:46;7.40;;;4.00;;
7813;SDS011;3952;48.364;16.022;2023-02-17T11:44:21;3.60;;;3.30;;
7813;SDS011;3952;48.364;16.022;2023-02-17T11:46:51;4.57;;;3.73;;
7813;SDS011;3952;48.364;16.022;2023-02-17T11:49:30;8.00;;;3.20;;
7813;SDS011;3952;48.364;16.022;2023-02-17T11:52:21;3.40;;;3.10;;
7813;SDS011;3952;48.364;16.022;2023-02-17T11:57:51;6.23;;;3.37;;
7813;SDS011;3952;48.364;16.022;2023-02-17T12:00:29;3.83;;;3.33;;
7813;SDS011;3952;48.364;16.022;2023-02-17T12:03:11;4.13;;;3.67;;
7813;SDS011;3952;48.364;16.022;2023-02-17T12:06:02;8.07;;;3.50;;
7813;SDS011;3952;48.364;16.022;2023-02-17T12:08:41;5.80;;;4.43;;
7813;SDS011;3952;48.364;16.022;2023-02-17T12:11:21;4.20;;;3.40;;
7813;SDS011;3952;48.364;16.022;2023-02-17T12:13:59;5.40;;;3.53;;
7813;SDS011;3952;48.364;16.022;2023-02-17T12:16:39;5.43;;;3.83;;
7813;SDS011;3952;48.364;16.022;2023-02-17T12:19:20;3.87;;;3.47;;
7813;SDS011;3952;48.364;16.022;2023-02-17T12:22:00;3.77;;;3.47;;
7813;SDS011;3952;48.364;16.022;2023-02-17T12:24:40;6.37;;;3.47;;
7813;SDS011;3952;48.364;16.022;2023-02-17T12:27:22;6.13;;;3.20;;
7813;SDS011;3952;48.364;16.022;2023-02-17T12:30:07;3.33;;;3.13;;
7813;SDS011;3952;48.364;16.022;2023-02-17T12:32:55;5.57;;;3.20;;
7813;SDS011;3952;48.364;16.022;2023-02-17T12:35:37;5.23;;;3.47;;
7813;SDS011;3952;48.364;16.022;2023-02-17T12:38:12;5.77;;;3.00;;
7813;SDS011;3952;48.364;16.022;2023-02-17T12:40:44;3.17;;;2.63;;
7813;SDS011;3952;48.364;16.022;2023-02-17T12:43:21;3.10;;;2.73;;
7813;SDS011;3952;48.364;16.022;2023-02-17T12:45:51;4.37;;;3.33;;
7813;SDS011;3952;48.364;16.022;2023-02-17T12:48:24;3.43;;;3.23;;
7813;SDS011;3952;48.364;16.022;2023-02-17T12:50:56;4.17;;;3.10;;
7813;SDS011;3952;48.364;16.022;2023-02-17T12:53:33;7.13;;;3.50;;
7813;SDS011;3952;48.364;16.022;2023-02-17T12:56:19;3.40;;;3.10;;
7813;SDS011;3952;48.364;16.022;2023-02-17T12:59:09;5.73;;;3.37;;
7813;SDS011;3952;48.364;16.022;2023-02-17T13:01:41;6.10;;;3.13;;
7813;SDS011;3952;48.364;16.022;2023-02-17T13:04:17;3.37;;;3.07;;
7813;SDS011;3952;48.364;16.022;2023-02-17T13:06:50;4.03;;;2.93;;
7813;SDS011;3952;48.364;16.022;2023-02-17T13:09:24;6.27;;;3.40;;
7813;SDS011;3952;48.364;16.022;2023-02-17T13:12:06;4.83;;;3.20;;
7813;SDS011;3952;48.364;16.022;2023-02-17T13:14:39;4.23;;;3.17;;
7813;SDS011;3952;48.364;16.022;2023-02-17T13:17:20;4.93;;;2.97;;
7813;SDS011;3952;48.364;16.022;2023-02-17T13:20:03;9.40;;;3.10;;
7813;SDS011;3952;48.364;16.022;2023-02-17T13:22:45;5.97;;;3.70;;
7813;SDS011;3952;48.364;16.022;2023-02-17T13:25:24;7.00;;;3.53;;
7813;SDS011;3952;48.364;16.022;2023-02-17T13:27:53;4.80;;;3.43;;
7813;SDS011;3952;48.364;16.022;2023-02-17T13:30:26;5.70;;;3.03;;
7813;SDS011;3952;48.364;16.022;2023-02-17T13:33:00;4.57;;;3.60;;
7813;SDS011;3952;48.364;16.022;2023-02-17T13:35:30;3.50;;;3.30;;
7813;SDS011;3952;48.364;16.022;2023-02-17T13:37:59;7.03;;;3.60;;
7813;SDS011;3952;48.364;16.022;2023-02-17T13:40:32;3.97;;;3.07;;
7813;SDS011;3952;48.364;16.022;2023-02-17T13:43:09;3.50;;;3.20;;
7813;SDS011;3952;48.364;16.022;2023-02-17T13:45:43;3.40;;;3.10;;
7813;SDS011;3952;48.364;16.022;2023-02-17T13:48:20;3.30;;;3.00;;
7813;SDS011;3952;48.364;16.022;2023-02-17T13:50:51;4.33;;;3.30;;
7813;SDS011;3952;48.364;16.022;2023-02-17T13:53:24;3.13;;;2.70;;
7813;SDS011;3952;48.364;16.022;2023-02-17T13:55:54;7.53;;;3.00;;
7813;SDS011;3952;48.364;16.022;2023-02-17T13:58:24;4.17;;;3.00;;
7813;SDS011;3952;48.364;16.022;2023-02-17T14:00:55;5.70;;;3.10;;
7813;SDS011;3952;48.364;16.022;2023-02-17T14:03:24;3.90;;;2.90;;
7813;SDS011;3952;48.364;16.022;2023-02-17T14:05:53;4.97;;;3.07;;
7813;SDS011;3952;48.364;16.022;2023-02-17T14:08:32;3.97;;;2.73;;
7813;SDS011;3952;48.364;16.022;2023-02-17T14:11:03;3.53;;;3.10;;
7813;SDS011;3952;48.364;16.022;2023-02-17T14:13:34;3.13;;;2.93;;
7813;SDS011;3952;48.364;16.022;2023-02-17T14:16:04;2.93;;;2.73;;
7813;SDS011;3952;48.364;16.022;2023-02-17T14:18:33;4.53;;;3.00;;
7813;SDS011;3952;48.364;16.022;2023-02-17T14:21:04;6.10;;;2.80;;
7813;SDS011;3952;48.364;16.022;2023-02-17T14:23:43;4.97;;;2.80;;
7813;SDS011;3952;48.364;16.022;2023-02-17T14:26:14;3.80;;;2.70;;
7813;SDS011;3952;48.364;16.022;2023-02-17T14:28:52;3.43;;;2.63;;
7813;SDS011;3952;48.364;16.022;2023-02-17T14:31:21;3.93;;;2.80;;
7813;SDS011;3952;48.364;16.022;2023-02-17T14:33:53;5.37;;;2.90;;
7813;SDS011;3952;48.364;16.022;2023-02-17T14:36:26;3.30;;;2.77;;
7813;SDS011;3952;48.364;16.022;2023-02-17T14:38:56;8.20;;;2.80;;
7813;SDS011;3952;48.364;16.022;2023-02-17T14:41:24;3.63;;;3.33;;
7813;SDS011;3952;48.364;16.022;2023-02-17T14:43:52;4.40;;;3.00;;
7813;SDS011;3952;48.364;16.022;2023-02-17T14:46:19;2.80;;;2.60;;
7813;SDS011;3952;48.364;16.022;2023-02-17T14:48:48;3.30;;;2.73;;
7813;SDS011;3952;48.364;16.022;2023-02-17T14:51:17;4.43;;;3.00;;
7813;SDS011;3952;48.364;16.022;2023-02-17T14:53:46;3.43;;;2.73;;
7813;SDS011;3952;48.364;16.022;2023-02-17T14:56:15;3.17;;;2.40;;
7813;SDS011;3952;48.364;16.022;2023-02-17T14:58:46;3.33;;;2.70;;
7813;SDS011;3952;48.364;16.022;2023-02-17T15:01:15;5.77;;;2.73;;
7813;SDS011;3952;48.364;16.022;2023-02-17T15:03:45;5.23;;;3.10;;
7813;SDS011;3952;48.364;16.022;2023-02-17T15:06:13;6.03;;;2.70;;
7813;SDS011;3952;48.364;16.022;2023-02-17T15:08:43;4.60;;;2.70;;
7813;SDS011;3952;48.364;16.022;2023-02-17T15:11:15;3.07;;;2.77;;
7813;SDS011;3952;48.364;16.022;2023-02-17T15:13:44;3.70;;;2.17;;
7813;SDS011;3952;48.364;16.022;2023-02-17T15:16:12;5.27;;;3.17;;
7813;SDS011;3952;48.364;16.022;2023-02-17T15:18:40;2.97;;;2.60;;